Time;durP1;ratioP1;P1;durP2;ratioP2;P2;SDS_P1;SDS_P2;PMS_P1;PMS_P2;Temp;Humidity;BMP_temperature;BMP_pressure;BME280_temperature;BME280_humidity;BME280_pressure;Samples;Min_cycle;Max_cycle;Signal;HPM_P1;HPM_P2
2023/01/08 00:02:23;;;;;;;419.25;146.10;;;;;;;-142.25;100.00;58004.16;5040382;28;20077;-67
2023/01/08 00:04:48;;;;;;;420.53;161.63;;;;;;;-142.25;100.00;58004.16;5055815;28;20547;-66
2023/01/08 00:07:14;;;;;;;415.70;146.67;;;;;;;-142.25;100.00;58004.16;5039400;28;20389;-67
2023/01/08 00:09:40;;;;;;;420.37;143.53;;;;;;;-142.25;100.00;58004.16;5041645;28;20044;-68
2023/01/08 00:12:08;;;;;;;405.50;140.23;;;;;;;-142.25;100.00;58004.16;5038608;28;20049;-69
2023/01/08 00:14:34;;;;;;;406.27;142.00;;;;;;;-142.25;100.00;58004.16;5038852;28;20060;-69
2023/01/08 00:17:01;;;;;;;406.77;141.43;;;;;;;-142.25;100.00;58004.16;5038790;28;20053;-66
2023/01/08 00:19:27;;;;;;;407.25;139.85;;;;;;;-142.25;100.00;58004.16;5037383;28;20045;-68
2023/01/08 00:21:53;;;;;;;407.63;138.55;;;;;;;-142.25;100.00;58004.16;5038227;28;20095;-67
2023/01/08 00:24:19;;;;;;;401.23;136.83;;;;;;;-142.25;100.00;58004.16;5036237;28;20052;-67
2023/01/08 00:26:45;;;;;;;399.50;153.48;;;;;;;-142.25;100.00;58004.16;5037973;28;20048;-68
2023/01/08 00:29:11;;;;;;;404.10;153.20;;;;;;;-142.25;100.00;58004.16;5035364;28;20053;-66
2023/01/08 00:31:36;;;;;;;410.20;142.33;;;;;;;-142.25;100.00;58004.16;5036017;28;20513;-67
2023/01/08 00:34:02;;;;;;;403.67;135.23;;;;;;;-142.25;100.00;58004.16;5041211;28;20072;-66
2023/01/08 00:36:28;;;;;;;416.33;139.17;;;;;;;-142.25;100.00;58004.16;5042843;28;20515;-67
2023/01/08 00:38:53;;;;;;;411.97;143.43;;;;;;;-142.25;100.00;58004.16;5032070;28;20037;-66
2023/01/08 00:41:19;;;;;;;403.77;139.50;;;;;;;-142.25;100.00;58004.16;5033431;28;20692;-66
2023/01/08 00:43:45;;;;;;;402.50;136.10;;;;;;;-142.25;100.00;58004.16;5034643;28;20521;-66
2023/01/08 00:46:11;;;;;;;394.83;135.80;;;;;;;-142.25;100.00;58004.16;5037179;28;20068;-67
2023/01/08 00:48:37;;;;;;;399.75;136.43;;;;;;;-142.25;100.00;58004.16;5035709;28;20477;-66
2023/01/08 00:51:05;;;;;;;403.58;139.77;;;;;;;-142.25;100.00;58004.16;5036147;28;20253;-67
2023/01/08 00:53:30;;;;;;;398.80;131.35;;;;;;;-142.25;100.00;58004.16;5020924;28;20128;-66
2023/01/08 00:56:04;;;;;;;408.87;137.30;;;;;;;-142.25;100.00;58004.16;5037176;28;20513;-67
2023/01/08 00:58:29;;;;;;;402.02;137.85;;;;;;;-142.25;100.00;58004.16;5035386;28;20521;-66
2023/01/08 01:00:55;;;;;;;393.47;134.83;;;;;;;-142.25;100.00;58004.16;5037862;28;20046;-66
2023/01/08 01:03:21;;;;;;;406.13;145.03;;;;;;;-142.25;100.00;58004.16;5034903;28;20037;-66
2023/01/08 01:05:46;;;;;;;401.00;138.60;;;;;;;-142.25;100.00;58004.16;5035625;28;20037;-67
2023/01/08 01:08:12;;;;;;;401.90;136.33;;;;;;;-142.25;100.00;58004.16;5034844;28;20656;-67
2023/01/08 01:10:39;;;;;;;406.63;139.50;;;;;;;-142.25;100.00;58004.16;5037061;28;20044;-68
2023/01/08 01:13:04;;;;;;;403.48;135.88;;;;;;;-142.25;100.00;58004.16;5036346;28;20036;-67
2023/01/08 01:15:30;;;;;;;404.13;138.30;;;;;;;-142.25;100.00;58004.16;5032470;28;20076;-67
2023/01/08 01:17:56;;;;;;;416.83;139.07;;;;;;;-142.25;100.00;58004.16;5035597;28;20060;-67
2023/01/08 01:20:22;;;;;;;410.57;137.33;;;;;;;-142.25;100.00;58004.16;5035103;28;20048;-68
2023/01/08 01:22:48;;;;;;;394.15;133.38;;;;;;;-142.25;100.00;58004.16;5034758;28;20370;-67
2023/01/08 01:25:14;;;;;;;404.58;140.07;;;;;;;-142.25;100.00;58004.16;5034749;28;20103;-67
2023/01/08 01:27:41;;;;;;;401.75;139.95;;;;;;;-142.25;100.00;58004.16;5029785;28;20499;-66
2023/01/08 01:30:07;;;;;;;403.48;140.98;;;;;;;-142.25;100.00;58004.16;5030344;28;20103;-67
2023/01/08 01:32:33;;;;;;;401.35;140.02;;;;;;;-142.25;100.00;58004.16;5031164;28;20269;-67
2023/01/08 01:35:02;;;;;;;400.20;141.40;;;;;;;-142.25;100.00;58004.16;5028562;28;20045;-66
2023/01/08 01:37:28;;;;;;;408.88;138.70;;;;;;;-142.25;100.00;58004.16;5032785;28;20052;-67
2023/01/08 01:39:55;;;;;;;403.67;138.73;;;;;;;-142.25;100.00;58004.16;5042221;28;20438;-66
2023/01/08 01:42:39;;;;;;;406.48;138.27;;;;;;;-142.25;100.00;58004.16;5034357;28;20139;-66
2023/01/08 01:45:30;;;;;;;400.17;136.65;;;;;;;-142.25;100.00;58004.16;5035808;28;20042;-67
2023/01/08 01:48:02;;;;;;;401.98;138.35;;;;;;;-142.25;100.00;58004.16;5036158;28;20401;-66
2023/01/08 01:50:34;;;;;;;403.13;138.30;;;;;;;-142.25;100.00;58004.16;5034983;28;20052;-66
2023/01/08 01:53:06;;;;;;;398.30;137.98;;;;;;;-142.25;100.00;58004.16;5036383;28;20037;-67
2023/01/08 01:55:34;;;;;;;402.23;141.57;;;;;;;-142.25;100.00;58004.16;5035127;28;20444;-66
2023/01/08 01:58:10;;;;;;;404.92;136.25;;;;;;;-142.25;100.00;58004.16;5033753;28;20053;-67
2023/01/08 02:00:36;;;;;;;399.05;135.07;;;;;;;-142.25;100.00;58004.16;5035372;28;20066;-67
2023/01/08 02:03:04;;;;;;;401.03;141.77;;;;;;;-142.25;100.00;58004.16;5028922;28;20482;-66
2023/01/08 02:05:47;;;;;;;397.73;135.57;;;;;;;-142.25;100.00;58004.16;5030372;28;20387;-66
2023/01/08 02:08:39;;;;;;;398.73;134.50;;;;;;;-142.25;100.00;58004.16;5034184;28;20052;-66
2023/01/08 02:11:20;;;;;;;398.58;136.48;;;;;;;-142.25;100.00;58004.16;5035421;28;20423;-65
2023/01/08 02:13:57;;;;;;;399.83;136.23;;;;;;;-142.25;100.00;58004.16;5035307;28;20048;-66
2023/01/08 02:16:45;;;;;;;397.73;136.23;;;;;;;-142.25;100.00;58004.16;5033868;28;20683;-66
2023/01/08 02:19:17;;;;;;;395.17;136.05;;;;;;;-142.25;100.00;58004.16;5021823;28;20045;-66
2023/01/08 02:22:02;;;;;;;399.67;136.80;;;;;;;-142.25;100.00;58004.16;5033418;28;20276;-66
2023/01/08 02:24:34;;;;;;;282.20;97.47;;;;;;;-142.25;100.00;58004.16;5032674;28;20493;-67
2023/01/08 02:27:03;;;;;;;397.30;133.90;;;;;;;-142.25;100.00;58004.16;5017344;28;20513;-66
2023/01/08 02:29:31;;;;;;;396.50;135.35;;;;;;;-142.25;100.00;58004.16;5033240;28;20038;-67
2023/01/08 02:31:57;;;;;;;393.00;132.50;;;;;;;-142.25;100.00;58004.16;5029791;28;20618;-67
2023/01/08 02:34:23;;;;;;;392.60;130.98;;;;;;;-142.25;100.00;58004.16;5032243;28;20555;-66
2023/01/08 02:36:56;;;;;;;394.67;130.27;;;;;;;-142.25;100.00;58004.16;5037305;28;20358;-67
2023/01/08 02:39:32;;;;;;;395.77;131.82;;;;;;;-142.25;100.00;58004.16;5033199;28;20502;-67
2023/01/08 02:42:39;;;;;;;395.75;130.68;;;;;;;-142.25;100.00;58004.16;5033371;28;20068;-67
2023/01/08 02:45:34;;;;;;;404.85;129.65;;;;;;;-142.25;100.00;58004.16;5034424;28;20411;-67
2023/01/08 02:48:19;;;;;;;290.48;96.38;;;;;;;-142.25;100.00;58004.16;5039461;28;20045;-65
2023/01/08 02:51:02;;;;;;;397.27;132.90;;;;;;;-142.25;100.00;58004.16;5035536;28;20041;-67
2023/01/08 02:53:33;;;;;;;396.77;131.23;;;;;;;-142.25;100.00;58004.16;5037965;28;20042;-65
2023/01/08 02:56:09;;;;;;;400.30;132.75;;;;;;;-142.25;100.00;58004.16;5041920;28;20044;-67
2023/01/08 02:58:39;;;;;;;393.75;130.48;;;;;;;-142.25;100.00;58004.16;5037654;28;20120;-65
2023/01/08 03:01:08;;;;;;;406.23;131.52;;;;;;;-142.25;100.00;58004.16;5035799;28;20040;-66
2023/01/08 03:03:36;;;;;;;399.45;133.55;;;;;;;-142.25;100.00;58004.16;5037555;28;20099;-65
2023/01/08 03:06:06;;;;;;;398.77;130.32;;;;;;;-142.25;100.00;58004.16;5043275;28;20555;-66
2023/01/08 03:08:34;;;;;;;395.35;129.77;;;;;;;-142.25;100.00;58004.16;5036778;28;20076;-66
2023/01/08 03:11:07;;;;;;;402.58;129.23;;;;;;;-142.25;100.00;58004.16;5034908;28;20048;-67
2023/01/08 03:13:35;;;;;;;403.17;131.30;;;;;;;-142.25;100.00;58004.16;5049356;28;20543;-65
2023/01/08 03:16:04;;;;;;;398.17;134.15;;;;;;;-142.25;100.00;58004.16;5035792;28;20041;-66
2023/01/08 03:18:36;;;;;;;398.73;132.35;;;;;;;-142.25;100.00;58004.16;5038009;28;20048;-66
2023/01/08 03:21:05;;;;;;;400.33;133.57;;;;;;;-142.25;100.00;58004.16;5039149;28;20041;-66
2023/01/08 03:23:33;;;;;;;401.45;128.50;;;;;;;-142.25;100.00;58004.16;5044328;28;20364;-67
2023/01/08 03:26:01;;;;;;;390.17;128.00;;;;;;;-142.25;100.00;58004.16;5038975;28;20083;-66
2023/01/08 03:28:35;;;;;;;395.80;130.60;;;;;;;-142.25;100.00;58004.16;5043012;28;20058;-69
2023/01/08 03:31:02;;;;;;;298.98;100.25;;;;;;;-142.25;100.00;58004.16;5038891;28;20052;-69
2023/01/08 03:33:30;;;;;;;399.65;131.13;;;;;;;-142.25;100.00;58004.16;5040074;28;20049;-70
2023/01/08 03:35:57;;;;;;;402.73;136.93;;;;;;;-142.25;100.00;58004.16;5036167;28;20080;-70
2023/01/08 03:38:38;;;;;;;402.80;134.57;;;;;;;-142.25;100.00;58004.16;5034169;28;20041;-70
2023/01/08 03:41:08;;;;;;;410.10;135.88;;;;;;;-142.25;100.00;58004.16;5038250;28;20047;-70
2023/01/08 03:43:35;;;;;;;407.55;129.27;;;;;;;-142.25;100.00;58004.16;5038908;28;20163;-68
2023/01/08 03:46:04;;;;;;;398.23;127.97;;;;;;;-142.25;100.00;58004.16;5041707;28;20120;-71
2023/01/08 03:48:32;;;;;;;394.88;127.40;;;;;;;-142.25;100.00;58004.16;5038811;28;20111;-70
2023/01/08 03:50:58;;;;;;;398.58;134.48;;;;;;;-142.25;100.00;58004.16;5037424;28;20155;-69
2023/01/08 03:53:24;;;;;;;398.43;129.97;;;;;;;-142.25;100.00;58004.16;5037439;28;20045;-70
2023/01/08 03:55:49;;;;;;;399.93;130.20;;;;;;;-142.25;100.00;58004.16;5038974;28;20609;-70
2023/01/08 03:58:15;;;;;;;396.83;126.30;;;;;;;-142.25;100.00;58004.16;5033266;28;20053;-68
2023/01/08 04:00:41;;;;;;;398.47;130.77;;;;;;;-142.25;100.00;58004.16;5038589;28;20103;-69
2023/01/08 04:03:06;;;;;;;398.23;129.30;;;;;;;-142.25;100.00;58004.16;5037686;28;20046;-69
2023/01/08 04:05:32;;;;;;;401.63;128.47;;;;;;;-142.25;100.00;58004.16;5037809;28;20044;-69
2023/01/08 04:07:58;;;;;;;399.77;129.40;;;;;;;-142.25;100.00;58004.16;5037029;28;20179;-69
2023/01/08 04:10:24;;;;;;;405.90;138.10;;;;;;;-142.25;100.00;58004.16;5037265;28;20049;-68
2023/01/08 04:12:50;;;;;;;395.80;131.68;;;;;;;-142.25;100.00;58004.16;5037147;28;20053;-68
2023/01/08 04:15:16;;;;;;;397.53;129.03;;;;;;;-142.25;100.00;58004.16;5043440;28;20041;-68
2023/01/08 04:17:42;;;;;;;397.65;131.65;;;;;;;-142.25;100.00;58004.16;5037306;28;20056;-72
2023/01/08 04:20:08;;;;;;;404.33;129.53;;;;;;;-142.25;100.00;58004.16;5038226;28;20592;-69
2023/01/08 04:22:34;;;;;;;400.42;129.63;;;;;;;-142.25;100.00;58004.16;5037185;28;20443;-69
2023/01/08 04:24:59;;;;;;;393.27;127.77;;;;;;;-142.25;100.00;58004.16;5038250;28;20057;-72
2023/01/08 04:27:25;;;;;;;402.40;134.05;;;;;;;-142.25;100.00;58004.16;5033286;28;20088;-67
2023/01/08 04:29:51;;;;;;;397.50;135.53;;;;;;;-142.25;100.00;58004.16;5031825;28;20426;-70
2023/01/08 04:32:17;;;;;;;413.93;134.73;;;;;;;-142.25;100.00;58004.16;5038611;28;20044;-70
2023/01/08 04:34:43;;;;;;;413.93;127.73;;;;;;;-142.25;100.00;58004.16;5036043;28;20051;-69
2023/01/08 04:37:08;;;;;;;399.20;134.43;;;;;;;-142.25;100.00;58004.16;5036005;28;20531;-71
2023/01/08 04:39:34;;;;;;;401.83;134.77;;;;;;;-142.25;100.00;58004.16;5035223;28;20538;-70
2023/01/08 04:42:00;;;;;;;400.03;128.80;;;;;;;-142.25;100.00;58004.16;5036994;28;20175;-70
2023/01/08 04:44:25;;;;;;;396.17;133.00;;;;;;;-142.25;100.00;58004.16;5037818;28;20401;-70
2023/01/08 04:46:51;;;;;;;397.47;134.50;;;;;;;-142.25;100.00;58004.16;5038154;28;20084;-71
2023/01/08 04:49:16;;;;;;;400.40;132.90;;;;;;;-142.25;100.00;58004.16;5036341;28;20118;-71
2023/01/08 04:51:42;;;;;;;396.93;134.17;;;;;;;-142.25;100.00;58004.16;5037347;28;20057;-70
2023/01/08 04:54:08;;;;;;;397.97;136.60;;;;;;;-142.25;100.00;58004.16;5035554;28;20525;-70
2023/01/08 04:56:33;;;;;;;402.30;136.20;;;;;;;-142.25;100.00;58004.16;5034716;28;20144;-70
2023/01/08 04:58:59;;;;;;;403.87;133.10;;;;;;;-142.25;100.00;58004.16;5038134;28;20036;-70
2023/01/08 05:01:26;;;;;;;404.93;133.23;;;;;;;-142.25;100.00;58004.16;5042604;28;20068;-70
2023/01/08 05:03:54;;;;;;;397.58;135.18;;;;;;;-142.25;100.00;58004.16;5036079;28;20056;-70
2023/01/08 05:06:19;;;;;;;407.05;134.82;;;;;;;-142.25;100.00;58004.16;5034698;28;20044;-71
2023/01/08 05:08:45;;;;;;;401.23;132.20;;;;;;;-142.25;100.00;58004.16;5034456;28;20048;-70
2023/01/08 05:11:10;;;;;;;401.33;132.93;;;;;;;-142.25;100.00;58004.16;5035187;28;20617;-70
2023/01/08 05:13:36;;;;;;;401.70;135.83;;;;;;;-142.25;100.00;58004.16;5037675;28;20116;-70
2023/01/08 05:16:02;;;;;;;412.87;133.00;;;;;;;-142.25;100.00;58004.16;5037121;28;20037;-70
2023/01/08 05:18:28;;;;;;;401.70;132.77;;;;;;;-142.25;100.00;58004.16;5035696;28;20033;-70
2023/01/08 05:20:58;;;;;;;398.50;132.15;;;;;;;-142.25;100.00;58004.16;5036513;28;20834;-70
2023/01/08 05:23:23;;;;;;;403.65;133.57;;;;;;;-142.25;100.00;58004.16;5036279;28;20044;-70
2023/01/08 05:25:49;;;;;;;399.20;131.43;;;;;;;-142.25;100.00;58004.16;5035657;28;20083;-70
2023/01/08 05:28:15;;;;;;;402.30;131.23;;;;;;;-142.25;100.00;58004.16;5037481;28;20108;-69
2023/01/08 05:30:40;;;;;;;399.53;132.10;;;;;;;-142.25;100.00;58004.16;5043165;28;20092;-69
2023/01/08 05:33:06;;;;;;;402.97;131.33;;;;;;;-142.25;100.00;58004.16;5036800;28;20045;-70
2023/01/08 05:35:31;;;;;;;403.83;128.73;;;;;;;-142.25;100.00;58004.16;5034361;28;20045;-70
2023/01/08 05:37:59;;;;;;;404.00;136.80;;;;;;;-142.25;100.00;58004.16;5036615;28;20037;-70
2023/01/08 05:40:25;;;;;;;405.35;132.07;;;;;;;-142.25;100.00;58004.16;5035933;28;20037;-72
2023/01/08 05:42:50;;;;;;;395.52;128.18;;;;;;;-142.25;100.00;58004.16;5036509;28;20063;-71
2023/01/08 05:45:16;;;;;;;400.87;133.77;;;;;;;-142.25;100.00;58004.16;5036772;28;20041;-71
2023/01/08 05:47:41;;;;;;;392.97;128.33;;;;;;;-142.25;100.00;58004.16;5036273;28;20470;-70
2023/01/08 05:50:07;;;;;;;405.60;130.77;;;;;;;-142.25;100.00;58004.16;5034531;28;20045;-70
2023/01/08 05:52:33;;;;;;;399.27;128.50;;;;;;;-142.25;100.00;58004.16;5034523;28;20251;-70
2023/01/08 05:54:59;;;;;;;402.13;133.63;;;;;;;-142.25;100.00;58004.16;5035073;28;20141;-70
2023/01/08 05:57:25;;;;;;;401.90;132.80;;;;;;;-142.25;100.00;58004.16;5035386;28;20068;-70
2023/01/08 05:59:50;;;;;;;403.40;131.05;;;;;;;-142.25;100.00;58004.16;5034293;28;20471;-70
2023/01/08 06:02:16;;;;;;;401.80;135.20;;;;;;;-142.25;100.00;58004.16;5032843;28;20495;-69
2023/01/08 06:04:42;;;;;;;397.27;133.43;;;;;;;-142.25;100.00;58004.16;5030247;28;20496;-70
2023/01/08 06:07:08;;;;;;;399.23;136.55;;;;;;;-142.25;100.00;58004.16;5032142;28;20033;-69
2023/01/08 06:09:33;;;;;;;397.80;135.23;;;;;;;-142.25;100.00;58004.16;5029081;28;20502;-71
2023/01/08 06:11:59;;;;;;;394.30;127.87;;;;;;;-142.25;100.00;58004.16;5032669;28;20060;-70
2023/01/08 06:14:25;;;;;;;394.50;133.67;;;;;;;-142.25;100.00;58004.16;5032511;28;20040;-72
2023/01/08 06:16:50;;;;;;;395.07;130.23;;;;;;;-142.25;100.00;58004.16;5032938;28;20072;-71
2023/01/08 06:19:17;;;;;;;393.47;128.43;;;;;;;-142.25;100.00;58004.16;5032242;28;20099;-71
2023/01/08 06:21:44;;;;;;;396.42;130.27;;;;;;;-142.25;100.00;58004.16;5032661;28;20041;-70
2023/01/08 06:24:10;;;;;;;392.20;127.20;;;;;;;-142.25;100.00;58004.16;5033396;28;20053;-71
2023/01/08 06:26:35;;;;;;;397.27;128.57;;;;;;;-142.25;100.00;58004.16;5040231;28;20039;-71
2023/01/08 06:29:01;;;;;;;391.47;129.20;;;;;;;-142.25;100.00;58004.16;5034590;28;20068;-71
2023/01/08 06:31:26;;;;;;;389.63;126.13;;;;;;;-142.25;100.00;58004.16;5036727;28;20440;-71
2023/01/08 06:33:52;;;;;;;393.60;125.03;;;;;;;-142.25;100.00;58004.16;5034050;28;20456;-71
2023/01/08 06:36:17;;;;;;;397.93;128.10;;;;;;;-142.25;100.00;58004.16;5031273;28;20052;-71
2023/01/08 06:38:43;;;;;;;391.13;126.63;;;;;;;-142.25;100.00;58004.16;5035167;28;20048;-71
2023/01/08 06:41:09;;;;;;;390.43;129.87;;;;;;;-142.25;100.00;58004.16;5033711;28;20052;-71
2023/01/08 06:43:36;;;;;;;393.75;132.38;;;;;;;-142.25;100.00;58004.16;5030267;28;20129;-71
2023/01/08 06:46:03;;;;;;;398.58;135.13;;;;;;;-142.25;100.00;58004.16;5030415;28;20056;-71
2023/01/08 06:48:29;;;;;;;393.75;134.57;;;;;;;-142.25;100.00;58004.16;5018869;28;20049;-71
2023/01/08 06:50:58;;;;;;;398.93;135.57;;;;;;;-142.25;100.00;58004.16;5027300;28;20115;-71
2023/01/08 06:53:23;;;;;;;394.08;130.20;;;;;;;-142.25;100.00;58004.16;5029870;28;20280;-70
2023/01/08 06:55:55;;;;;;;393.50;129.10;;;;;;;-142.25;100.00;58004.16;5032142;28;20624;-70
2023/01/08 06:58:20;;;;;;;391.05;126.10;;;;;;;-142.25;100.00;58004.16;5024808;28;20080;-71
2023/01/08 07:00:46;;;;;;;404.63;130.23;;;;;;;-142.25;100.00;58004.16;5035953;28;20128;-68
2023/01/08 07:03:11;;;;;;;395.47;134.20;;;;;;;-142.25;100.00;58004.16;5033282;28;20041;-69
2023/01/08 07:05:37;;;;;;;400.03;135.27;;;;;;;-142.25;100.00;58004.16;5030089;28;20052;-70
2023/01/08 07:08:03;;;;;;;402.33;128.43;;;;;;;-142.25;100.00;58004.16;5031986;28;20399;-70
2023/01/08 07:10:30;;;;;;;394.67;130.67;;;;;;;-142.25;100.00;58004.16;5032618;28;20052;-71
2023/01/08 07:12:56;;;;;;;406.13;129.95;;;;;;;-142.25;100.00;58004.16;5042258;28;20118;-70
2023/01/08 07:15:22;;;;;;;393.58;129.68;;;;;;;-142.25;100.00;58004.16;5032729;28;20049;-70
2023/01/08 07:17:48;;;;;;;394.65;128.13;;;;;;;-142.25;100.00;58004.16;5035486;28;20056;-71
2023/01/08 07:20:14;;;;;;;391.23;125.27;;;;;;;-142.25;100.00;58004.16;5035997;28;20527;-70
2023/01/08 07:22:39;;;;;;;396.77;131.32;;;;;;;-142.25;100.00;58004.16;5031910;28;20071;-69
2023/01/08 07:25:06;;;;;;;401.00;128.43;;;;;;;-142.25;100.00;58004.16;5034437;28;20583;-69
2023/01/08 07:27:31;;;;;;;394.48;128.02;;;;;;;-142.25;100.00;58004.16;5031080;28;20128;-70
2023/01/08 07:29:57;;;;;;;396.50;132.13;;;;;;;-142.25;100.00;58004.16;5033907;28;20044;-70
2023/01/08 07:32:23;;;;;;;398.33;131.60;;;;;;;-142.25;100.00;58004.16;5034512;28;20064;-70
2023/01/08 07:34:49;;;;;;;403.73;128.33;;;;;;;-142.25;100.00;58004.16;5035302;28;20042;-70
2023/01/08 07:37:14;;;;;;;398.70;136.07;;;;;;;-142.25;100.00;58004.16;5037230;28;20050;-71
2023/01/08 07:39:40;;;;;;;392.80;131.33;;;;;;;-142.25;100.00;58004.16;5037883;28;20112;-70
2023/01/08 07:42:05;;;;;;;396.70;124.57;;;;;;;-142.25;100.00;58004.16;5034415;28;20061;-70
2023/01/08 07:44:32;;;;;;;398.87;127.63;;;;;;;-142.25;100.00;58004.16;5036381;28;20044;-71
2023/01/08 07:46:57;;;;;;;390.90;130.10;;;;;;;-142.25;100.00;58004.16;5036979;28;20025;-71
2023/01/08 07:49:23;;;;;;;389.50;122.97;;;;;;;-142.25;100.00;58004.16;5037394;28;20280;-70
2023/01/08 07:51:49;;;;;;;394.03;129.93;;;;;;;-142.25;100.00;58004.16;5037721;28;20048;-70
2023/01/08 07:54:14;;;;;;;390.53;131.07;;;;;;;-142.25;100.00;58004.16;5033591;28;20037;-70
2023/01/08 07:56:40;;;;;;;385.73;125.13;;;;;;;-142.25;100.00;58004.16;5035951;28;20041;-70
2023/01/08 07:59:05;;;;;;;400.13;131.53;;;;;;;-142.25;100.00;58004.16;5034314;28;20119;-70
2023/01/08 08:01:31;;;;;;;400.47;129.50;;;;;;;-142.25;100.00;58004.16;5035999;28;20042;-70
2023/01/08 08:03:57;;;;;;;393.60;132.90;;;;;;;-142.25;100.00;58004.16;5035987;28;20033;-72
2023/01/08 08:06:22;;;;;;;395.43;131.57;;;;;;;-142.25;100.00;58004.16;5033270;28;20045;-70
2023/01/08 08:08:48;;;;;;;396.73;129.43;;;;;;;-142.25;100.00;58004.16;5033595;28;20455;-70
2023/01/08 08:11:14;;;;;;;394.73;129.53;;;;;;;-142.25;100.00;58004.16;5036170;28;20144;-70
2023/01/08 08:13:43;;;;;;;392.70;131.77;;;;;;;-142.25;100.00;58004.16;5035678;28;20037;-71
2023/01/08 08:16:10;;;;;;;397.63;134.18;;;;;;;-142.25;100.00;58004.16;5033483;28;20048;-71
2023/01/08 08:18:36;;;;;;;394.65;132.30;;;;;;;-142.25;100.00;58004.16;5034032;28;20538;-71
2023/01/08 08:21:02;;;;;;;396.60;135.13;;;;;;;-142.25;100.00;58004.16;5037112;28;20049;-70
2023/01/08 08:23:28;;;;;;;404.45;136.35;;;;;;;-142.25;100.00;58004.16;5034122;28;20060;-71
2023/01/08 08:25:54;;;;;;;402.42;130.45;;;;;;;-142.25;100.00;58004.16;5035794;28;20083;-72
2023/01/08 08:28:20;;;;;;;396.10;135.83;;;;;;;-142.25;100.00;58004.16;5034642;28;20510;-66
2023/01/08 08:30:46;;;;;;;403.50;139.07;;;;;;;-142.25;100.00;58004.16;5033524;28;20408;-69
2023/01/08 08:33:12;;;;;;;406.57;139.17;;;;;;;-142.25;100.00;58004.16;5034013;28;20041;-67
2023/01/08 08:35:38;;;;;;;402.97;139.97;;;;;;;-142.25;100.00;58004.16;5032776;28;20037;-67
2023/01/08 08:38:04;;;;;;;403.17;143.13;;;;;;;-142.25;100.00;58004.16;5030145;28;20511;-68
2023/01/08 08:40:30;;;;;;;407.73;188.10;;;;;;;-142.25;100.00;58004.16;5027971;28;20041;-69
2023/01/08 08:43:01;;;;;;;400.73;139.73;;;;;;;-142.25;100.00;58004.16;5032376;28;20037;-70
2023/01/08 08:45:27;;;;;;;418.75;199.88;;;;;;;-142.25;100.00;58004.16;5032789;28;20064;-68
2023/01/08 08:47:53;;;;;;;399.35;134.75;;;;;;;-142.25;100.00;58004.16;5032084;28;20045;-67
2023/01/08 08:50:19;;;;;;;401.17;141.43;;;;;;;-142.25;100.00;58004.16;5034296;28;20049;-67
2023/01/08 08:52:44;;;;;;;405.97;143.43;;;;;;;-142.25;100.00;58004.16;5036710;28;20041;-68
2023/01/08 08:55:17;;;;;;;400.43;143.10;;;;;;;-142.25;100.00;58004.16;5032575;28;20053;-68
2023/01/08 08:57:47;;;;;;;398.65;134.38;;;;;;;-142.25;100.00;58004.16;5021623;28;20114;-67
2023/01/08 09:00:13;;;;;;;402.05;135.95;;;;;;;-142.25;100.00;58004.16;5031318;28;20049;-67
2023/01/08 09:02:39;;;;;;;399.30;132.80;;;;;;;-142.25;100.00;58004.16;5028793;28;20453;-67
2023/01/08 09:05:05;;;;;;;394.57;135.03;;;;;;;-142.25;100.00;58004.16;5033195;28;20647;-65
2023/01/08 09:07:31;;;;;;;401.90;140.15;;;;;;;-142.25;100.00;58004.16;5034693;28;20045;-66
2023/01/08 09:09:56;;;;;;;398.13;142.50;;;;;;;-142.25;100.00;58004.16;5032577;28;20051;-65
2023/01/08 09:12:22;;;;;;;395.67;136.33;;;;;;;-142.25;100.00;58004.16;5035280;28;20045;-66
2023/01/08 09:14:49;;;;;;;400.03;136.60;;;;;;;-142.25;100.00;58004.16;5033180;28;20038;-66
2023/01/08 09:17:15;;;;;;;400.23;139.90;;;;;;;-142.25;100.00;58004.16;5033789;28;20076;-66
2023/01/08 09:19:40;;;;;;;397.25;138.05;;;;;;;-142.25;100.00;58004.16;5034725;28;20052;-66
2023/01/08 09:22:07;;;;;;;401.55;146.48;;;;;;;-142.25;100.00;58004.16;5031814;28;20591;-67
2023/01/08 09:24:32;;;;;;;403.57;146.67;;;;;;;-142.25;100.00;58004.16;5033709;28;20062;-67
2023/01/08 09:26:58;;;;;;;408.80;145.77;;;;;;;-142.25;100.00;58004.16;5036107;28;20045;-65
2023/01/08 09:29:24;;;;;;;403.93;145.87;;;;;;;-142.25;100.00;58004.16;5034861;28;20126;-68
2023/01/08 09:31:50;;;;;;;401.02;143.25;;;;;;;-142.25;100.00;58004.16;5034949;28;20125;-65
2023/01/08 09:34:15;;;;;;;400.77;136.60;;;;;;;-142.25;100.00;58004.16;5033618;28;20083;-65
2023/01/08 09:36:41;;;;;;;407.17;143.10;;;;;;;-142.25;100.00;58004.16;5034750;28;20587;-65
2023/01/08 09:39:08;;;;;;;403.17;138.33;;;;;;;-142.25;100.00;58004.16;5032809;28;20060;-66
2023/01/08 09:41:38;;;;;;;404.48;147.75;;;;;;;-142.25;100.00;58004.16;5032902;28;20053;-66
2023/01/08 09:44:05;;;;;;;403.10;141.63;;;;;;;-142.25;100.00;58004.16;5033136;28;20049;-64
2023/01/08 09:46:33;;;;;;;404.83;144.32;;;;;;;-142.25;100.00;58004.16;5033799;28;20159;-65
2023/01/08 09:49:05;;;;;;;403.92;146.48;;;;;;;-142.25;100.00;58004.16;5034358;28;20041;-65
2023/01/08 09:51:36;;;;;;;402.95;145.10;;;;;;;-142.25;100.00;58004.16;5034057;28;20049;-66
2023/01/08 09:54:02;;;;;;;405.02;150.88;;;;;;;-142.25;100.00;58004.16;5030032;28;20037;-66
2023/01/08 09:56:28;;;;;;;402.60;153.50;;;;;;;-142.25;100.00;58004.16;5035372;28;20040;-66
2023/01/08 09:58:57;;;;;;;404.45;147.57;;;;;;;-142.25;100.00;58004.16;5033259;28;20491;-66
2023/01/08 10:01:27;;;;;;;402.60;143.18;;;;;;;-142.25;100.00;58004.16;5031808;28;20045;-65
2023/01/08 10:04:12;;;;;;;409.10;149.73;;;;;;;-142.25;100.00;58004.16;5032781;28;20055;-65
2023/01/08 10:06:39;;;;;;;403.85;144.88;;;;;;;-142.25;100.00;58004.16;5033602;28;20041;-67
2023/01/08 10:09:05;;;;;;;408.50;150.63;;;;;;;-142.25;100.00;58004.16;5032871;28;20045;-65
2023/01/08 10:11:42;;;;;;;414.00;158.00;;;;;;;-142.25;100.00;58004.16;5039174;28;20094;-65
2023/01/08 10:14:23;;;;;;;405.60;150.13;;;;;;;-142.25;100.00;58004.16;5030824;28;20091;-66
2023/01/08 10:17:00;;;;;;;405.80;144.70;;;;;;;-142.25;100.00;58004.16;5038005;28;20063;-66
2023/01/08 10:19:25;;;;;;;402.27;151.90;;;;;;;-142.25;100.00;58004.16;5029689;28;20267;-66
2023/01/08 10:21:52;;;;;;;398.13;140.50;;;;;;;-142.25;100.00;58004.16;5029175;28;20048;-67
2023/01/08 10:24:30;;;;;;;408.80;163.98;;;;;;;-142.25;100.00;58004.16;5031105;28;20036;-66
2023/01/08 10:27:14;;;;;;;406.50;147.98;;;;;;;-142.25;100.00;58004.16;5028693;28;20327;-66
2023/01/08 10:29:40;;;;;;;400.30;142.07;;;;;;;-142.25;100.00;58004.16;5033916;28;20073;-67
2023/01/08 10:32:16;;;;;;;410.65;142.23;;;;;;;-142.25;100.00;58004.16;5031074;28;20044;-65
2023/01/08 10:34:49;;;;;;;401.75;142.45;;;;;;;-142.25;100.00;58004.16;5032945;28;20429;-64
2023/01/08 10:37:38;;;;;;;409.42;142.25;;;;;;;-142.25;100.00;58004.16;5039733;28;20544;-66
2023/01/08 10:40:22;;;;;;;402.33;142.25;;;;;;;-142.25;100.00;58004.16;5034625;28;20100;-67
2023/01/08 10:42:49;;;;;;;400.20;142.52;;;;;;;-142.25;100.00;58004.16;5031532;28;20055;-65
2023/01/08 10:45:24;;;;;;;401.70;137.40;;;;;;;-142.25;100.00;58004.16;5032243;28;20049;-65